sensor_id;sensor_type;location;lat;lon;timestamp;P1;durP1;ratioP1;P2;durP2;ratioP2
10120;SDS011;5100;45.176;5.714;2023-05-07T00:00:11;2.83;;;1.40;;
10120;SDS011;5100;45.176;5.714;2023-05-07T00:02:41;1.50;;;1.40;;
10120;SDS011;5100;45.176;5.714;2023-05-07T00:05:07;1.55;;;1.40;;
10120;SDS011;5100;45.176;5.714;2023-05-07T00:07:33;1.15;;;1.10;;
10120;SDS011;5100;45.176;5.714;2023-05-07T00:10:00;1.55;;;1.35;;
10120;SDS011;5100;45.176;5.714;2023-05-07T00:12:26;1.40;;;1.30;;
10120;SDS011;5100;45.176;5.714;2023-05-07T00:14:52;1.37;;;1.27;;
10120;SDS011;5100;45.176;5.714;2023-05-07T00:17:18;2.70;;;1.30;;
10120;SDS011;5100;45.176;5.714;2023-05-07T00:19:45;2.08;;;1.30;;
10120;SDS011;5100;45.176;5.714;2023-05-07T00:22:11;2.37;;;1.40;;
10120;SDS011;5100;45.176;5.714;2023-05-07T00:24:38;2.78;;;1.50;;
10120;SDS011;5100;45.176;5.714;2023-05-07T00:27:04;2.45;;;1.30;;
10120;SDS011;5100;45.176;5.714;2023-05-07T00:29:30;2.40;;;1.25;;
10120;SDS011;5100;45.176;5.714;2023-05-07T00:31:56;1.95;;;1.50;;
10120;SDS011;5100;45.176;5.714;2023-05-07T00:34:22;2.40;;;1.25;;
10120;SDS011;5100;45.176;5.714;2023-05-07T00:36:49;2.05;;;1.40;;
10120;SDS011;5100;45.176;5.714;2023-05-07T00:39:15;1.62;;;1.20;;
10120;SDS011;5100;45.176;5.714;2023-05-07T00:41:41;1.50;;;1.40;;
10120;SDS011;5100;45.176;5.714;2023-05-07T00:44:07;1.20;;;1.20;;
10120;SDS011;5100;45.176;5.714;2023-05-07T00:46:34;1.50;;;1.40;;
10120;SDS011;5100;45.176;5.714;2023-05-07T00:49:00;6.18;;;1.62;;
10120;SDS011;5100;45.176;5.714;2023-05-07T00:51:26;1.98;;;1.30;;
10120;SDS011;5100;45.176;5.714;2023-05-07T00:53:53;2.58;;;1.23;;
10120;SDS011;5100;45.176;5.714;2023-05-07T00:56:20;1.25;;;1.15;;
10120;SDS011;5100;45.176;5.714;2023-05-07T00:58:47;1.60;;;1.50;;
10120;SDS011;5100;45.176;5.714;2023-05-07T01:01:14;1.58;;;1.48;;
10120;SDS011;5100;45.176;5.714;2023-05-07T01:03:43;1.50;;;1.40;;
10120;SDS011;5100;45.176;5.714;2023-05-07T01:06:09;2.75;;;1.70;;
10120;SDS011;5100;45.176;5.714;2023-05-07T01:08:39;1.98;;;1.30;;
10120;SDS011;5100;45.176;5.714;2023-05-07T01:11:09;1.95;;;1.30;;
10120;SDS011;5100;45.176;5.714;2023-05-07T01:13:37;1.83;;;1.30;;
10120;SDS011;5100;45.176;5.714;2023-05-07T01:16:04;2.25;;;1.30;;
10120;SDS011;5100;45.176;5.714;2023-05-07T01:18:31;1.60;;;1.35;;
10120;SDS011;5100;45.176;5.714;2023-05-07T01:20:58;1.85;;;1.50;;
10120;SDS011;5100;45.176;5.714;2023-05-07T01:23:26;1.37;;;1.27;;
10120;SDS011;5100;45.176;5.714;2023-05-07T01:25:53;1.40;;;1.30;;
10120;SDS011;5100;45.176;5.714;2023-05-07T01:28:20;1.85;;;1.52;;
10120;SDS011;5100;45.176;5.714;2023-05-07T01:30:48;1.62;;;1.50;;
10120;SDS011;5100;45.176;5.714;2023-05-07T01:33:19;2.37;;;1.42;;
10120;SDS011;5100;45.176;5.714;2023-05-07T01:35:52;1.25;;;1.15;;
10120;SDS011;5100;45.176;5.714;2023-05-07T01:38:20;1.65;;;1.40;;
10120;SDS011;5100;45.176;5.714;2023-05-07T01:40:47;1.87;;;1.60;;
10120;SDS011;5100;45.176;5.714;2023-05-07T01:43:14;3.55;;;1.60;;
10120;SDS011;5100;45.176;5.714;2023-05-07T01:45:40;1.60;;;1.50;;
10120;SDS011;5100;45.176;5.714;2023-05-07T01:48:07;1.95;;;1.83;;
10120;SDS011;5100;45.176;5.714;2023-05-07T01:50:35;3.08;;;2.03;;
10120;SDS011;5100;45.176;5.714;2023-05-07T01:53:01;3.65;;;2.25;;
10120;SDS011;5100;45.176;5.714;2023-05-07T01:55:28;3.72;;;2.35;;
10120;SDS011;5100;45.176;5.714;2023-05-07T01:57:54;3.22;;;2.40;;
10120;SDS011;5100;45.176;5.714;2023-05-07T02:00:20;5.62;;;2.40;;
10120;SDS011;5100;45.176;5.714;2023-05-07T02:02:47;5.35;;;2.75;;
10120;SDS011;5100;45.176;5.714;2023-05-07T02:05:15;3.00;;;2.80;;
10120;SDS011;5100;45.176;5.714;2023-05-07T02:07:41;2.55;;;2.35;;
10120;SDS011;5100;45.176;5.714;2023-05-07T02:10:08;3.87;;;2.85;;
10120;SDS011;5100;45.176;5.714;2023-05-07T02:12:35;2.75;;;2.50;;
10120;SDS011;5100;45.176;5.714;2023-05-07T02:15:01;3.00;;;2.53;;
10120;SDS011;5100;45.176;5.714;2023-05-07T02:17:27;3.37;;;2.40;;
10120;SDS011;5100;45.176;5.714;2023-05-07T02:19:57;2.83;;;2.62;;
10120;SDS011;5100;45.176;5.714;2023-05-07T02:22:23;3.33;;;2.55;;
10120;SDS011;5100;45.176;5.714;2023-05-07T02:24:49;2.85;;;2.65;;
10120;SDS011;5100;45.176;5.714;2023-05-07T02:27:15;2.80;;;2.50;;
10120;SDS011;5100;45.176;5.714;2023-05-07T02:29:43;2.70;;;2.50;;
10120;SDS011;5100;45.176;5.714;2023-05-07T02:32:09;3.62;;;2.60;;
10120;SDS011;5100;45.176;5.714;2023-05-07T02:34:35;3.05;;;2.75;;
10120;SDS011;5100;45.176;5.714;2023-05-07T02:37:01;2.45;;;2.25;;
10120;SDS011;5100;45.176;5.714;2023-05-07T02:39:27;2.65;;;2.40;;
10120;SDS011;5100;45.176;5.714;2023-05-07T02:41:53;3.47;;;2.90;;
10120;SDS011;5100;45.176;5.714;2023-05-07T02:44:19;4.65;;;2.37;;
10120;SDS011;5100;45.176;5.714;2023-05-07T02:46:48;2.37;;;2.17;;
10120;SDS011;5100;45.176;5.714;2023-05-07T02:49:14;2.28;;;2.10;;
10120;SDS011;5100;45.176;5.714;2023-05-07T02:51:40;4.65;;;2.42;;
10120;SDS011;5100;45.176;5.714;2023-05-07T02:54:08;4.72;;;2.45;;
10120;SDS011;5100;45.176;5.714;2023-05-07T02:56:34;4.68;;;2.30;;
10120;SDS011;5100;45.176;5.714;2023-05-07T02:59:00;3.30;;;2.40;;
10120;SDS011;5100;45.176;5.714;2023-05-07T03:01:27;2.00;;;1.80;;
10120;SDS011;5100;45.176;5.714;2023-05-07T03:03:54;2.85;;;1.70;;
10120;SDS011;5100;45.176;5.714;2023-05-07T03:06:21;2.12;;;1.92;;
10120;SDS011;5100;45.176;5.714;2023-05-07T03:08:47;4.12;;;2.08;;
10120;SDS011;5100;45.176;5.714;2023-05-07T03:11:13;2.25;;;1.70;;
10120;SDS011;5100;45.176;5.714;2023-05-07T03:13:40;2.28;;;2.00;;
10120;SDS011;5100;45.176;5.714;2023-05-07T03:16:06;2.53;;;1.90;;
10120;SDS011;5100;45.176;5.714;2023-05-07T03:18:32;2.53;;;1.90;;
10120;SDS011;5100;45.176;5.714;2023-05-07T03:20:58;2.65;;;2.10;;
10120;SDS011;5100;45.176;5.714;2023-05-07T03:23:24;2.72;;;2.22;;
10120;SDS011;5100;45.176;5.714;2023-05-07T03:25:50;4.85;;;2.35;;
10120;SDS011;5100;45.176;5.714;2023-05-07T03:28:16;3.22;;;2.33;;
10120;SDS011;5100;45.176;5.714;2023-05-07T03:30:44;3.40;;;2.17;;
10120;SDS011;5100;45.176;5.714;2023-05-07T03:33:10;2.80;;;2.50;;
10120;SDS011;5100;45.176;5.714;2023-05-07T03:35:36;3.55;;;2.50;;
10120;SDS011;5100;45.176;5.714;2023-05-07T03:38:02;3.80;;;2.42;;
10120;SDS011;5100;45.176;5.714;2023-05-07T03:40:29;2.70;;;2.40;;
10120;SDS011;5100;45.176;5.714;2023-05-07T03:42:55;2.42;;;2.22;;
10120;SDS011;5100;45.176;5.714;2023-05-07T03:45:22;4.70;;;2.10;;
10120;SDS011;5100;45.176;5.714;2023-05-07T03:47:49;5.30;;;2.30;;
10120;SDS011;5100;45.176;5.714;2023-05-07T03:50:15;3.95;;;2.00;;
10120;SDS011;5100;45.176;5.714;2023-05-07T03:52:42;2.80;;;2.47;;
10120;SDS011;5100;45.176;5.714;2023-05-07T03:55:09;4.47;;;2.80;;
10120;SDS011;5100;45.176;5.714;2023-05-07T03:57:36;3.20;;;2.60;;
10120;SDS011;5100;45.176;5.714;2023-05-07T04:00:03;2.33;;;2.12;;
10120;SDS011;5100;45.176;5.714;2023-05-07T04:02:34;3.78;;;2.28;;
10120;SDS011;5100;45.176;5.714;2023-05-07T04:05:01;3.60;;;2.30;;
10120;SDS011;5100;45.176;5.714;2023-05-07T04:07:27;3.92;;;2.35;;
10120;SDS011;5100;45.176;5.714;2023-05-07T04:09:53;3.15;;;2.25;;
10120;SDS011;5100;45.176;5.714;2023-05-07T04:12:20;2.70;;;2.47;;
10120;SDS011;5100;45.176;5.714;2023-05-07T04:14:47;2.22;;;2.03;;
10120;SDS011;5100;45.176;5.714;2023-05-07T04:17:14;3.00;;;2.70;;
10120;SDS011;5100;45.176;5.714;2023-05-07T04:19:40;2.90;;;2.53;;
10120;SDS011;5100;45.176;5.714;2023-05-07T04:22:11;3.33;;;2.40;;
10120;SDS011;5100;45.176;5.714;2023-05-07T04:24:37;4.00;;;2.20;;
10120;SDS011;5100;45.176;5.714;2023-05-07T04:27:04;2.60;;;2.40;;
10120;SDS011;5100;45.176;5.714;2023-05-07T04:29:31;3.87;;;2.20;;
10120;SDS011;5100;45.176;5.714;2023-05-07T04:31:57;2.90;;;2.30;;
10120;SDS011;5100;45.176;5.714;2023-05-07T04:34:25;2.65;;;2.45;;
10120;SDS011;5100;45.176;5.714;2023-05-07T04:36:53;2.67;;;2.30;;
10120;SDS011;5100;45.176;5.714;2023-05-07T04:39:19;2.42;;;2.22;;
10120;SDS011;5100;45.176;5.714;2023-05-07T04:41:45;3.47;;;2.53;;
10120;SDS011;5100;45.176;5.714;2023-05-07T04:44:11;3.22;;;2.58;;
10120;SDS011;5100;45.176;5.714;2023-05-07T04:46:37;3.00;;;2.12;;
10120;SDS011;5100;45.176;5.714;2023-05-07T04:49:04;3.03;;;2.70;;
10120;SDS011;5100;45.176;5.714;2023-05-07T04:51:31;2.35;;;2.15;;
10120;SDS011;5100;45.176;5.714;2023-05-07T04:53:58;2.60;;;2.33;;
10120;SDS011;5100;45.176;5.714;2023-05-07T04:56:27;2.53;;;2.30;;
10120;SDS011;5100;45.176;5.714;2023-05-07T04:58:55;3.30;;;2.30;;
10120;SDS011;5100;45.176;5.714;2023-05-07T05:01:21;2.60;;;2.35;;
10120;SDS011;5100;45.176;5.714;2023-05-07T05:03:48;2.75;;;2.45;;
10120;SDS011;5100;45.176;5.714;2023-05-07T05:06:14;2.60;;;2.37;;
10120;SDS011;5100;45.176;5.714;2023-05-07T05:08:40;4.28;;;2.58;;
10120;SDS011;5100;45.176;5.714;2023-05-07T05:11:08;3.00;;;2.47;;
10120;SDS011;5100;45.176;5.714;2023-05-07T05:13:35;2.45;;;2.25;;
10120;SDS011;5100;45.176;5.714;2023-05-07T05:16:02;2.83;;;2.28;;
10120;SDS011;5100;45.176;5.714;2023-05-07T05:18:29;2.65;;;2.37;;
10120;SDS011;5100;45.176;5.714;2023-05-07T05:20:55;4.22;;;2.35;;
10120;SDS011;5100;45.176;5.714;2023-05-07T05:23:21;4.47;;;2.85;;
10120;SDS011;5100;45.176;5.714;2023-05-07T05:25:47;4.03;;;2.47;;
10120;SDS011;5100;45.176;5.714;2023-05-07T05:28:14;3.22;;;2.37;;
10120;SDS011;5100;45.176;5.714;2023-05-07T05:30:40;3.05;;;2.72;;
10120;SDS011;5100;45.176;5.714;2023-05-07T05:33:06;5.37;;;3.08;;
10120;SDS011;5100;45.176;5.714;2023-05-07T05:35:32;2.67;;;2.47;;
10120;SDS011;5100;45.176;5.714;2023-05-07T05:38:01;2.67;;;2.47;;
10120;SDS011;5100;45.176;5.714;2023-05-07T05:40:28;3.17;;;2.60;;
10120;SDS011;5100;45.176;5.714;2023-05-07T05:42:55;4.35;;;2.30;;
10120;SDS011;5100;45.176;5.714;2023-05-07T05:45:21;3.10;;;2.33;;
10120;SDS011;5100;45.176;5.714;2023-05-07T05:47:47;3.22;;;2.85;;
10120;SDS011;5100;45.176;5.714;2023-05-07T05:50:14;3.35;;;2.62;;
10120;SDS011;5100;45.176;5.714;2023-05-07T05:52:40;7.18;;;2.62;;
10120;SDS011;5100;45.176;5.714;2023-05-07T05:55:07;2.60;;;2.35;;
10120;SDS011;5100;45.176;5.714;2023-05-07T05:57:34;2.70;;;2.50;;
10120;SDS011;5100;45.176;5.714;2023-05-07T06:00:01;3.83;;;2.62;;
10120;SDS011;5100;45.176;5.714;2023-05-07T06:02:29;3.28;;;2.12;;
10120;SDS011;5100;45.176;5.714;2023-05-07T06:04:56;2.95;;;2.28;;
10120;SDS011;5100;45.176;5.714;2023-05-07T06:07:22;2.92;;;2.65;;
10120;SDS011;5100;45.176;5.714;2023-05-07T06:09:48;2.58;;;2.37;;
10120;SDS011;5100;45.176;5.714;2023-05-07T06:12:14;3.72;;;2.35;;
10120;SDS011;5100;45.176;5.714;2023-05-07T06:14:42;2.80;;;2.50;;
10120;SDS011;5100;45.176;5.714;2023-05-07T06:17:10;2.87;;;2.33;;
10120;SDS011;5100;45.176;5.714;2023-05-07T06:19:36;2.53;;;2.33;;
10120;SDS011;5100;45.176;5.714;2023-05-07T06:22:02;2.90;;;2.35;;
10120;SDS011;5100;45.176;5.714;2023-05-07T06:24:29;2.80;;;2.20;;
10120;SDS011;5100;45.176;5.714;2023-05-07T06:26:55;4.93;;;2.20;;
10120;SDS011;5100;45.176;5.714;2023-05-07T06:29:22;2.35;;;2.15;;
10120;SDS011;5100;45.176;5.714;2023-05-07T06:31:48;2.65;;;2.45;;
10120;SDS011;5100;45.176;5.714;2023-05-07T06:34:14;3.30;;;2.35;;
10120;SDS011;5100;45.176;5.714;2023-05-07T06:36:41;1.90;;;1.65;;
10120;SDS011;5100;45.176;5.714;2023-05-07T06:39:08;3.00;;;2.25;;
10120;SDS011;5100;45.176;5.714;2023-05-07T06:41:35;3.37;;;1.77;;
10120;SDS011;5100;45.176;5.714;2023-05-07T06:44:04;3.05;;;1.87;;
10120;SDS011;5100;45.176;5.714;2023-05-07T06:46:31;3.25;;;1.90;;
10120;SDS011;5100;45.176;5.714;2023-05-07T06:48:57;3.87;;;2.22;;
10120;SDS011;5100;45.176;5.714;2023-05-07T06:51:24;2.37;;;2.10;;
10120;SDS011;5100;45.176;5.714;2023-05-07T06:53:50;3.00;;;2.10;;
10120;SDS011;5100;45.176;5.714;2023-05-07T06:56:17;2.53;;;2.33;;
10120;SDS011;5100;45.176;5.714;2023-05-07T06:58:43;2.50;;;2.30;;
10120;SDS011;5100;45.176;5.714;2023-05-07T07:01:09;3.58;;;2.20;;
10120;SDS011;5100;45.176;5.714;2023-05-07T07:03:36;4.90;;;2.40;;
10120;SDS011;5100;45.176;5.714;2023-05-07T07:06:02;2.37;;;2.17;;
10120;SDS011;5100;45.176;5.714;2023-05-07T07:08:28;3.08;;;2.50;;
10120;SDS011;5100;45.176;5.714;2023-05-07T07:10:56;2.70;;;2.17;;
10120;SDS011;5100;45.176;5.714;2023-05-07T07:13:22;2.40;;;2.20;;
10120;SDS011;5100;45.176;5.714;2023-05-07T07:15:48;2.83;;;2.53;;
10120;SDS011;5100;45.176;5.714;2023-05-07T07:18:16;3.20;;;2.25;;
10120;SDS011;5100;45.176;5.714;2023-05-07T07:20:45;5.45;;;2.10;;
10120;SDS011;5100;45.176;5.714;2023-05-07T07:23:12;2.25;;;1.90;;
10120;SDS011;5100;45.176;5.714;2023-05-07T07:25:38;1.87;;;1.77;;
10120;SDS011;5100;45.176;5.714;2023-05-07T07:28:05;2.20;;;2.00;;
10120;SDS011;5100;45.176;5.714;2023-05-07T07:30:31;2.85;;;1.92;;
10120;SDS011;5100;45.176;5.714;2023-05-07T07:32:58;2.45;;;2.10;;
10120;SDS011;5100;45.176;5.714;2023-05-07T07:35:32;2.20;;;2.00;;
10120;SDS011;5100;45.176;5.714;2023-05-07T07:37:58;2.42;;;2.22;;
10120;SDS011;5100;45.176;5.714;2023-05-07T07:40:25;3.62;;;2.08;;
10120;SDS011;5100;45.176;5.714;2023-05-07T07:42:51;2.53;;;2.00;;
10120;SDS011;5100;45.176;5.714;2023-05-07T07:45:19;2.20;;;2.00;;
10120;SDS011;5100;45.176;5.714;2023-05-07T07:47:46;2.35;;;2.12;;
10120;SDS011;5100;45.176;5.714;2023-05-07T07:50:12;2.10;;;2.00;;
10120;SDS011;5100;45.176;5.714;2023-05-07T07:52:39;2.30;;;2.10;;
10120;SDS011;5100;45.176;5.714;2023-05-07T07:55:06;2.87;;;2.65;;
10120;SDS011;5100;45.176;5.714;2023-05-07T07:57:33;2.40;;;2.17;;
10120;SDS011;5100;45.176;5.714;2023-05-07T08:00:00;2.33;;;2.12;;
10120;SDS011;5100;45.176;5.714;2023-05-07T08:02:27;2.67;;;2.45;;
10120;SDS011;5100;45.176;5.714;2023-05-07T08:04:53;2.55;;;2.35;;
10120;SDS011;5100;45.176;5.714;2023-05-07T08:07:19;2.33;;;2.00;;
10120;SDS011;5100;45.176;5.714;2023-05-07T08:09:48;3.92;;;2.53;;
10120;SDS011;5100;45.176;5.714;2023-05-07T08:12:14;2.28;;;1.98;;
10120;SDS011;5100;45.176;5.714;2023-05-07T08:14:41;3.70;;;2.37;;
10120;SDS011;5100;45.176;5.714;2023-05-07T08:17:08;2.33;;;2.12;;
10120;SDS011;5100;45.176;5.714;2023-05-07T08:19:36;2.50;;;2.30;;
10120;SDS011;5100;45.176;5.714;2023-05-07T08:22:03;2.65;;;1.90;;
10120;SDS011;5100;45.176;5.714;2023-05-07T08:24:31;2.35;;;2.15;;
10120;SDS011;5100;45.176;5.714;2023-05-07T08:26:57;3.42;;;2.15;;
10120;SDS011;5100;45.176;5.714;2023-05-07T08:29:23;2.45;;;2.10;;
10120;SDS011;5100;45.176;5.714;2023-05-07T08:31:49;5.32;;;2.17;;
10120;SDS011;5100;45.176;5.714;2023-05-07T08:34:16;4.53;;;2.78;;
10120;SDS011;5100;45.176;5.714;2023-05-07T08:36:42;3.12;;;2.78;;
10120;SDS011;5100;45.176;5.714;2023-05-07T08:39:09;2.45;;;2.17;;
10120;SDS011;5100;45.176;5.714;2023-05-07T08:41:36;2.47;;;2.28;;
10120;SDS011;5100;45.176;5.714;2023-05-07T08:44:03;2.40;;;2.10;;
10120;SDS011;5100;45.176;5.714;2023-05-07T08:46:37;3.47;;;1.90;;
10120;SDS011;5100;45.176;5.714;2023-05-07T08:49:03;2.40;;;2.20;;
10120;SDS011;5100;45.176;5.714;2023-05-07T08:51:29;2.22;;;2.00;;
10120;SDS011;5100;45.176;5.714;2023-05-07T08:53:56;2.92;;;2.30;;
10120;SDS011;5100;45.176;5.714;2023-05-07T08:56:22;2.58;;;2.05;;
10120;SDS011;5100;45.176;5.714;2023-05-07T08:58:48;2.97;;;2.10;;
10120;SDS011;5100;45.176;5.714;2023-05-07T09:01:16;3.62;;;2.35;;
10120;SDS011;5100;45.176;5.714;2023-05-07T09:03:46;4.00;;;2.40;;
10120;SDS011;5100;45.176;5.714;2023-05-07T09:06:13;2.40;;;2.20;;
10120;SDS011;5100;45.176;5.714;2023-05-07T09:08:43;3.28;;;2.80;;
10120;SDS011;5100;45.176;5.714;2023-05-07T09:11:20;4.97;;;2.65;;
10120;SDS011;5100;45.176;5.714;2023-05-07T09:13:48;3.03;;;2.70;;
10120;SDS011;5100;45.176;5.714;2023-05-07T09:16:27;2.60;;;2.40;;
10120;SDS011;5100;45.176;5.714;2023-05-07T09:18:57;3.30;;;2.62;;
10120;SDS011;5100;45.176;5.714;2023-05-07T09:21:24;3.60;;;2.80;;
10120;SDS011;5100;45.176;5.714;2023-05-07T09:23:51;3.10;;;2.70;;
10120;SDS011;5100;45.176;5.714;2023-05-07T09:26:23;2.60;;;2.40;;
10120;SDS011;5100;45.176;5.714;2023-05-07T09:28:50;3.58;;;2.80;;
10120;SDS011;5100;45.176;5.714;2023-05-07T09:31:18;2.92;;;2.72;;
10120;SDS011;5100;45.176;5.714;2023-05-07T09:33:44;4.00;;;2.70;;
10120;SDS011;5100;45.176;5.714;2023-05-07T09:36:11;4.82;;;2.72;;
10120;SDS011;5100;45.176;5.714;2023-05-07T09:38:38;3.87;;;2.87;;
10120;SDS011;5100;45.176;5.714;2023-05-07T09:41:06;3.17;;;2.83;;
10120;SDS011;5100;45.176;5.714;2023-05-07T09:43:37;4.00;;;3.37;;
10120;SDS011;5100;45.176;5.714;2023-05-07T09:46:12;4.37;;;2.75;;
10120;SDS011;5100;45.176;5.714;2023-05-07T09:48:41;2.75;;;2.53;;
10120;SDS011;5100;45.176;5.714;2023-05-07T09:51:18;3.70;;;2.50;;
10120;SDS011;5100;45.176;5.714;2023-05-07T09:53:53;2.87;;;2.60;;
10120;SDS011;5100;45.176;5.714;2023-05-07T09:56:20;3.97;;;2.87;;
10120;SDS011;5100;45.176;5.714;2023-05-07T09:58:47;3.75;;;2.75;;
10120;SDS011;5100;45.176;5.714;2023-05-07T10:01:14;3.17;;;2.60;;
10120;SDS011;5100;45.176;5.714;2023-05-07T10:03:43;3.70;;;2.20;;
10120;SDS011;5100;45.176;5.714;2023-05-07T10:06:10;2.10;;;1.90;;
10120;SDS011;5100;45.176;5.714;2023-05-07T10:08:37;4.00;;;1.80;;
10120;SDS011;5100;45.176;5.714;2023-05-07T10:11:05;1.75;;;1.65;;
10120;SDS011;5100;45.176;5.714;2023-05-07T10:13:32;2.10;;;1.62;;
10120;SDS011;5100;45.176;5.714;2023-05-07T10:16:02;2.40;;;2.00;;
10120;SDS011;5100;45.176;5.714;2023-05-07T10:18:32;2.30;;;2.10;;
10120;SDS011;5100;45.176;5.714;2023-05-07T10:21:01;1.90;;;1.80;;
10120;SDS011;5100;45.176;5.714;2023-05-07T10:23:41;2.65;;;1.92;;
10120;SDS011;5100;45.176;5.714;2023-05-07T10:26:20;2.37;;;1.90;;
10120;SDS011;5100;45.176;5.714;2023-05-07T10:28:49;1.87;;;1.77;;
10120;SDS011;5100;45.176;5.714;2023-05-07T10:34:13;2.00;;;1.80;;
10120;SDS011;5100;45.176;5.714;2023-05-07T10:36:43;1.77;;;1.67;;
10120;SDS011;5100;45.176;5.714;2023-05-07T10:39:10;2.00;;;1.80;;
10120;SDS011;5100;45.176;5.714;2023-05-07T10:41:37;1.80;;;1.70;;
10120;SDS011;5100;45.176;5.714;2023-05-07T10:44:05;2.30;;;2.10;;
10120;SDS011;5100;45.176;5.714;2023-05-07T10:46:31;3.22;;;1.83;;
10120;SDS011;5100;45.176;5.714;2023-05-07T10:51:34;2.10;;;1.90;;
10120;SDS011;5100;45.176;5.714;2023-05-07T10:56:39;2.12;;;1.92;;
10120;SDS011;5100;45.176;5.714;2023-05-07T11:01:50;1.77;;;1.67;;
10120;SDS011;5100;45.176;5.714;2023-05-07T11:04:21;3.05;;;1.60;;
10120;SDS011;5100;45.176;5.714;2023-05-07T11:09:54;2.05;;;1.90;;
10120;SDS011;5100;45.176;5.714;2023-05-07T11:15:12;3.30;;;2.00;;
10120;SDS011;5100;45.176;5.714;2023-05-07T11:17:52;2.58;;;1.70;;
10120;SDS011;5100;45.176;5.714;2023-05-07T11:26:08;1.95;;;1.83;;
10120;SDS011;5100;45.176;5.714;2023-05-07T11:28:36;2.35;;;1.80;;
10120;SDS011;5100;45.176;5.714;2023-05-07T11:31:04;2.05;;;1.83;;
10120;SDS011;5100;45.176;5.714;2023-05-07T11:33:30;3.28;;;1.90;;
10120;SDS011;5100;45.176;5.714;2023-05-07T11:35:59;2.37;;;1.80;;
10120;SDS011;5100;45.176;5.714;2023-05-07T11:38:28;3.20;;;1.80;;
10120;SDS011;5100;45.176;5.714;2023-05-07T11:41:01;2.20;;;1.80;;
10120;SDS011;5100;45.176;5.714;2023-05-07T11:43:33;1.70;;;1.60;;
10120;SDS011;5100;45.176;5.714;2023-05-07T11:48:36;1.95;;;1.80;;
10120;SDS011;5100;45.176;5.714;2023-05-07T11:51:05;2.75;;;1.70;;
10120;SDS011;5100;45.176;5.714;2023-05-07T11:53:39;4.90;;;2.10;;
10120;SDS011;5100;45.176;5.714;2023-05-07T11:56:14;1.83;;;1.73;;
10120;SDS011;5100;45.176;5.714;2023-05-07T11:58:41;2.03;;;1.83;;
10120;SDS011;5100;45.176;5.714;2023-05-07T12:01:10;2.85;;;1.90;;
10120;SDS011;5100;45.176;5.714;2023-05-07T12:03:37;4.10;;;1.95;;
10120;SDS011;5100;45.176;5.714;2023-05-07T12:06:08;2.28;;;1.90;;
10120;SDS011;5100;45.176;5.714;2023-05-07T12:08:36;2.33;;;2.08;;
10120;SDS011;5100;45.176;5.714;2023-05-07T12:11:04;2.10;;;1.90;;
10120;SDS011;5100;45.176;5.714;2023-05-07T12:13:34;1.70;;;1.60;;
10120;SDS011;5100;45.176;5.714;2023-05-07T12:16:00;1.70;;;1.60;;
10120;SDS011;5100;45.176;5.714;2023-05-07T12:18:29;2.00;;;1.73;;
10120;SDS011;5100;45.176;5.714;2023-05-07T12:20:55;1.73;;;1.60;;
10120;SDS011;5100;45.176;5.714;2023-05-07T12:23:22;2.65;;;1.73;;
10120;SDS011;5100;45.176;5.714;2023-05-07T12:25:50;1.87;;;1.60;;
10120;SDS011;5100;45.176;5.714;2023-05-07T12:28:17;2.15;;;1.90;;
10120;SDS011;5100;45.176;5.714;2023-05-07T12:30:44;1.85;;;1.70;;
10120;SDS011;5100;45.176;5.714;2023-05-07T12:33:16;1.92;;;1.67;;
10120;SDS011;5100;45.176;5.714;2023-05-07T12:35:43;1.70;;;1.60;;
10120;SDS011;5100;45.176;5.714;2023-05-07T12:38:12;1.70;;;1.60;;
10120;SDS011;5100;45.176;5.714;2023-05-07T12:40:44;2.58;;;1.95;;
10120;SDS011;5100;45.176;5.714;2023-05-07T12:43:17;2.42;;;2.10;;
10120;SDS011;5100;45.176;5.714;2023-05-07T12:45:48;4.15;;;2.47;;
10120;SDS011;5100;45.176;5.714;2023-05-07T12:48:15;2.28;;;1.98;;
10120;SDS011;5100;45.176;5.714;2023-05-07T12:50:42;2.35;;;2.08;;
10120;SDS011;5100;45.176;5.714;2023-05-07T12:53:10;3.28;;;2.00;;
10120;SDS011;5100;45.176;5.714;2023-05-07T12:55:56;2.20;;;2.10;;
10120;SDS011;5100;45.176;5.714;2023-05-07T12:58:25;2.60;;;2.33;;
10120;SDS011;5100;45.176;5.714;2023-05-07T13:00:55;2.17;;;1.80;;
10120;SDS011;5100;45.176;5.714;2023-05-07T13:03:30;3.12;;;2.03;;
10120;SDS011;5100;45.176;5.714;2023-05-07T13:05:58;2.22;;;2.03;;
10120;SDS011;5100;45.176;5.714;2023-05-07T13:08:32;1.92;;;1.83;;
10120;SDS011;5100;45.176;5.714;2023-05-07T13:11:00;2.42;;;2.22;;
10120;SDS011;5100;45.176;5.714;2023-05-07T13:13:30;2.45;;;2.25;;
10120;SDS011;5100;45.176;5.714;2023-05-07T13:15:57;4.22;;;2.10;;
10120;SDS011;5100;45.176;5.714;2023-05-07T13:18:24;1.90;;;1.80;;
10120;SDS011;5100;45.176;5.714;2023-05-07T13:20:52;2.20;;;2.00;;
10120;SDS011;5100;45.176;5.714;2023-05-07T13:23:19;2.25;;;2.15;;
10120;SDS011;5100;45.176;5.714;2023-05-07T13:25:45;3.17;;;2.00;;
10120;SDS011;5100;45.176;5.714;2023-05-07T13:28:11;1.83;;;1.70;;
10120;SDS011;5100;45.176;5.714;2023-05-07T13:30:37;1.65;;;1.55;;
10120;SDS011;5100;45.176;5.714;2023-05-07T13:33:04;4.05;;;1.87;;
10120;SDS011;5100;45.176;5.714;2023-05-07T13:35:30;1.80;;;1.67;;
10120;SDS011;5100;45.176;5.714;2023-05-07T13:37:56;2.45;;;1.70;;
10120;SDS011;5100;45.176;5.714;2023-05-07T13:40:23;2.50;;;2.05;;
10120;SDS011;5100;45.176;5.714;2023-05-07T13:42:49;1.65;;;1.55;;
10120;SDS011;5100;45.176;5.714;2023-05-07T13:45:16;1.85;;;1.70;;
10120;SDS011;5100;45.176;5.714;2023-05-07T13:47:46;1.70;;;1.60;;
10120;SDS011;5100;45.176;5.714;2023-05-07T13:50:12;1.67;;;1.58;;
10120;SDS011;5100;45.176;5.714;2023-05-07T13:52:41;2.10;;;1.90;;
10120;SDS011;5100;45.176;5.714;2023-05-07T13:55:17;3.87;;;2.10;;
10120;SDS011;5100;45.176;5.714;2023-05-07T13:57:43;2.05;;;1.70;;
10120;SDS011;5100;45.176;5.714;2023-05-07T14:00:10;1.70;;;1.60;;
10120;SDS011;5100;45.176;5.714;2023-05-07T14:02:40;1.50;;;1.40;;
10120;SDS011;5100;45.176;5.714;2023-05-07T14:05:07;1.60;;;1.50;;
10120;SDS011;5100;45.176;5.714;2023-05-07T14:07:34;1.50;;;1.40;;
10120;SDS011;5100;45.176;5.714;2023-05-07T14:10:01;1.80;;;1.70;;
10120;SDS011;5100;45.176;5.714;2023-05-07T14:12:27;1.85;;;1.65;;
10120;SDS011;5100;45.176;5.714;2023-05-07T14:14:53;1.87;;;1.67;;
10120;SDS011;5100;45.176;5.714;2023-05-07T14:17:20;3.92;;;1.50;;
10120;SDS011;5100;45.176;5.714;2023-05-07T14:19:48;1.85;;;1.75;;
10120;SDS011;5100;45.176;5.714;2023-05-07T14:22:14;1.80;;;1.70;;
10120;SDS011;5100;45.176;5.714;2023-05-07T14:24:40;1.98;;;1.73;;
10120;SDS011;5100;45.176;5.714;2023-05-07T14:27:07;1.50;;;1.40;;
10120;SDS011;5100;45.176;5.714;2023-05-07T14:29:33;1.70;;;1.60;;
10120;SDS011;5100;45.176;5.714;2023-05-07T14:32:00;2.12;;;1.80;;
10120;SDS011;5100;45.176;5.714;2023-05-07T14:34:28;2.65;;;1.50;;
10120;SDS011;5100;45.176;5.714;2023-05-07T14:36:55;2.10;;;1.77;;
10120;SDS011;5100;45.176;5.714;2023-05-07T14:39:21;2.25;;;1.83;;
10120;SDS011;5100;45.176;5.714;2023-05-07T14:41:47;1.92;;;1.83;;
10120;SDS011;5100;45.176;5.714;2023-05-07T14:44:13;3.65;;;1.60;;
10120;SDS011;5100;45.176;5.714;2023-05-07T14:46:39;2.22;;;1.70;;
10120;SDS011;5100;45.176;5.714;2023-05-07T14:49:05;2.50;;;1.58;;
10120;SDS011;5100;45.176;5.714;2023-05-07T14:51:32;1.50;;;1.40;;
10120;SDS011;5100;45.176;5.714;2023-05-07T14:53:58;1.85;;;1.73;;
10120;SDS011;5100;45.176;5.714;2023-05-07T14:56:24;1.70;;;1.60;;
10120;SDS011;5100;45.176;5.714;2023-05-07T14:58:50;2.33;;;1.60;;
10120;SDS011;5100;45.176;5.714;2023-05-07T15:01:16;1.60;;;1.50;;
10120;SDS011;5100;45.176;5.714;2023-05-07T15:03:43;2.00;;;1.90;;
10120;SDS011;5100;45.176;5.714;2023-05-07T15:06:09;1.75;;;1.65;;
10120;SDS011;5100;45.176;5.714;2023-05-07T15:08:36;1.98;;;1.70;;
10120;SDS011;5100;45.176;5.714;2023-05-07T15:11:02;1.87;;;1.77;;
10120;SDS011;5100;45.176;5.714;2023-05-07T15:13:28;1.80;;;1.70;;
10120;SDS011;5100;45.176;5.714;2023-05-07T15:15:54;1.60;;;1.50;;
10120;SDS011;5100;45.176;5.714;2023-05-07T15:18:20;1.50;;;1.40;;
10120;SDS011;5100;45.176;5.714;2023-05-07T15:20:46;1.73;;;1.40;;
10120;SDS011;5100;45.176;5.714;2023-05-07T15:23:12;3.25;;;1.50;;
10120;SDS011;5100;45.176;5.714;2023-05-07T15:25:40;1.50;;;1.40;;